TimeEST,TemperatureF,Dew PointF,Humidity,Sea Level PressureIn,VisibilityMPH,Wind Direction,Wind SpeedMPH,Gust SpeedMPH,PrecipitationIn,Events,Conditions,WindDirDegrees,DateUTC
12:55 AM,41.2,32.2,70,29.85,10.0,West,27.6,40.3,N/A,,Overcast,280,2013-01-31 05:55:00
1:49 AM,39.2,30.2,70,29.88,10.0,West,28.8,39.1,N/A,,Overcast,280,2013-01-31 06:49:00
1:50 AM,39.2,30.2,70,29.89,10.0,WNW,28.8,39.1,N/A,,Overcast,290,2013-01-31 06:50:00
1:51 AM,39.2,30.2,70,29.89,10.0,WNW,25.3,39.1,N/A,,Overcast,290,2013-01-31 06:51:00
1:55 AM,38.7,29.8,71,29.89,10.0,WNW,25.3,39.1,N/A,,Overcast,290,2013-01-31 06:55:00
2:00 AM,39.2,28.4,65,29.89,10.0,WNW,24.2,36.8,N/A,,Overcast,290,2013-01-31 07:00:00
2:55 AM,37.2,28.9,72,29.93,10.0,West,17.3,-,N/A,,Mostly Cloudy,280,2013-01-31 07:55:00
3:55 AM,36.3,27.5,70,29.95,10.0,West,16.1,24.2,N/A,,Overcast,260,2013-01-31 08:55:00
4:55 AM,35.8,27.3,71,29.98,10.0,West,13.8,-,N/A,,Overcast,260,2013-01-31 09:55:00
5:55 AM,34.9,26.2,71,30.01,10.0,West,17.3,-,N/A,,Overcast,260,2013-01-31 10:55:00
6:55 AM,33.6,25.0,71,30.03,10.0,West,15.0,-,N/A,,Partly Cloudy,260,2013-01-31 11:55:00
7:55 AM,32.9,25.3,74,30.05,10.0,West,13.8,-,N/A,,Partly Cloudy,270,2013-01-31 12:55:00
8:55 AM,34.9,25.5,69,30.07,10.0,West,15.0,24.2,N/A,,Partly Cloudy,280,2013-01-31 13:55:00
9:55 AM,37.0,26.2,65,30.09,10.0,West,17.3,26.5,N/A,,Partly Cloudy,280,2013-01-31 14:55:00
10:55 AM,39.6,26.1,58,30.11,10.0,West,17.3,-,N/A,,Partly Cloudy,280,2013-01-31 15:55:00
11:55 AM,42.1,25.7,52,30.13,10.0,WSW,16.1,26.5,N/A,,Partly Cloudy,250,2013-01-31 16:55:00
12:55 PM,44.4,25.2,47,30.12,10.0,West,20.7,25.3,N/A,,Partly Cloudy,270,2013-01-31 17:55:00
1:55 PM,46.0,24.4,43,30.12,10.0,West,17.3,24.2,N/A,,Partly Cloudy,270,2013-01-31 18:55:00
2:55 PM,46.2,23.2,40,30.12,10.0,NW,11.5,27.6,N/A,,Partly Cloudy,310,2013-01-31 19:55:00
3:55 PM,47.5,23.5,39,30.12,10.0,West,18.4,23.0,N/A,,Partly Cloudy,280,2013-01-31 20:55:00
4:55 PM,46.9,22.8,39,30.12,10.0,West,16.1,-,N/A,,Partly Cloudy,270,2013-01-31 21:55:00
5:55 PM,44.6,22.3,41,30.12,10.0,West,12.7,-,N/A,,Partly Cloudy,270,2013-01-31 22:55:00
6:55 PM,41.4,23.5,49,30.14,10.0,West,6.9,-,N/A,,Clear,260,2013-01-31 23:55:00
7:55 PM,40.5,24.6,53,30.15,10.0,SSW,3.5,-,N/A,,Clear,200,2013-02-01 00:55:00
8:55 PM,40.8,24.4,52,30.16,10.0,WSW,5.8,-,N/A,,Clear,240,2013-02-01 01:55:00
9:55 PM,40.5,24.6,53,30.17,10.0,SW,6.9,-,N/A,,Clear,230,2013-02-01 02:55:00
10:55 PM,40.6,25.3,54,30.17,10.0,SW,10.4,-,N/A,,Clear,230,2013-02-01 03:55:00
11:55 PM,40.5,25.7,56,30.16,10.0,SW,10.4,-,N/A,,Clear,230,2013-02-01 04:55:00